Time;durP1;ratioP1;P1;durP2;ratioP2;P2;SDS_P1;SDS_P2;PMS_P1;PMS_P2;Temp;Humidity;BMP_temperature;BMP_pressure;BME280_temperature;BME280_humidity;BME280_pressure;Samples;Min_cycle;Max_cycle;Signal;HPM_P1;HPM_P2
2024/02/12 00:02:18;;;;;;;7.55;4.45;;;;;;;6.15;100.00;96823.34;6230896;22;20521;-67
2024/02/12 00:04:47;;;;;;;8.68;4.60;;;;;;;6.10;100.00;96820.44;6233742;22;20007;-64
2024/02/12 00:07:16;;;;;;;7.55;4.22;;;;;;;6.04;100.00;96816.75;6231898;22;20110;-67
2024/02/12 00:09:44;;;;;;;7.67;4.03;;;;;;;6.09;100.00;96829.16;6230509;22;20000;-63
2024/02/12 00:12:11;;;;;;;6.40;3.55;;;;;;;5.70;100.00;96778.94;6208859;22;20322;-65
2024/02/12 00:14:41;;;;;;;6.28;3.05;;;;;;;6.02;100.00;96820.44;6258222;22;20534;-64
2024/02/12 00:17:09;;;;;;;6.25;3.13;;;;;;;6.10;100.00;96818.66;6231515;22;20015;-64
2024/02/12 00:19:35;;;;;;;8.75;3.10;;;;;;;6.15;100.00;96824.16;6231854;22;20062;-65
2024/02/12 00:22:04;;;;;;;5.55;3.08;;;;;;;6.03;100.00;96809.16;6233291;22;20007;-67
2024/02/12 00:24:34;;;;;;;6.38;3.25;;;;;;;5.89;100.00;96820.88;6231140;22;20014;-64
2024/02/12 00:27:03;;;;;;;5.47;3.00;;;;;;;5.88;100.00;96820.06;6233948;22;20468;-63
2024/02/12 00:29:30;;;;;;;6.82;3.47;;;;;;;5.86;100.00;96819.44;6207288;22;20011;-63
2024/02/12 00:31:58;;;;;;;5.38;2.83;;;;;;;5.88;100.00;96820.06;6233254;22;20007;-63
2024/02/12 00:34:26;;;;;;;5.72;2.80;;;;;;;5.81;100.00;96824.25;6204972;22;20011;-62
2024/02/12 00:36:54;;;;;;;6.90;2.92;;;;;;;5.80;100.00;96826.97;6231610;22;20052;-63
2024/02/12 00:39:20;;;;;;;5.65;2.70;;;;;;;5.62;100.00;96817.56;6231176;22;20023;-65
2024/02/12 00:41:49;;;;;;;6.18;3.05;;;;;;;5.62;100.00;96814.19;6206421;22;20022;-64
2024/02/12 00:44:17;;;;;;;;;;;;;;;5.67;100.00;96827.44;6209444;22;20012;-65
2024/02/12 00:46:45;;;;;;;8.27;3.30;;;;;;;5.77;100.00;96835.84;6230060;22;19911;-65
2024/02/12 00:49:13;;;;;;;6.05;3.30;;;;;;;5.37;100.00;96788.38;6234983;22;20095;-63
2024/02/12 00:51:41;;;;;;;6.57;3.42;;;;;;;5.59;100.00;96841.91;6231530;22;20004;-62
2024/02/12 00:54:09;;;;;;;5.57;3.08;;;;;;;5.61;100.00;96836.59;6205706;22;20448;-64
2024/02/12 00:56:34;;;;;;;5.82;3.20;;;;;;;5.62;100.00;96847.72;6233650;22;20003;-63
2024/02/12 00:59:02;;;;;;;6.30;3.30;;;;;;;5.28;100.00;96795.25;6204706;22;20004;-63
2024/02/12 01:01:27;;;;;;;6.38;3.50;;;;;;;5.66;100.00;96849.84;6235373;22;20038;-63
2024/02/12 01:03:56;;;;;;;5.20;2.70;;;;;;;5.33;100.00;96807.66;6224002;22;20086;-66
2024/02/12 01:06:22;;;;;;;5.15;2.85;;;;;;;5.45;100.00;96854.59;6209093;22;20582;-65
2024/02/12 01:08:50;;;;;;;6.55;3.05;;;;;;;5.52;100.00;96850.44;6206044;22;20066;-65
2024/02/12 01:11:17;;;;;;;6.20;3.05;;;;;;;5.54;100.00;96857.03;6259366;22;20007;-67
2024/02/12 01:13:44;;;;;;;6.45;3.28;;;;;;;5.47;100.00;96861.19;6205729;22;20011;-65
2024/02/12 01:16:10;;;;;;;7.30;3.15;;;;;;;5.10;100.00;96817.72;6230887;22;20440;-67
2024/02/12 01:18:36;;;;;;;5.63;2.70;;;;;;;5.13;100.00;96812.25;6230958;22;20015;-64
2024/02/12 01:21:04;;;;;;;5.82;3.03;;;;;;;5.45;100.00;96864.91;6203289;22;20086;-66
2024/02/12 01:23:30;;;;;;;6.82;3.25;;;;;;;5.37;100.00;96866.50;6231790;22;20018;-62
2024/02/12 01:25:55;;;;;;;9.55;3.75;;;;;;;5.33;100.00;96866.94;6202281;22;20443;-64
2024/02/12 01:28:21;;;;;;;6.75;3.28;;;;;;;5.42;100.00;96866.03;6230651;22;20071;-64
2024/02/12 01:30:47;;;;;;;7.50;3.80;;;;;;;5.26;100.00;96853.88;6228985;22;20052;-66
2024/02/12 01:33:16;;;;;;;5.72;3.47;;;;;;;5.43;100.00;96875.38;6226180;22;20011;-65
2024/02/12 01:35:41;;;;;;;7.05;3.60;;;;;;;5.61;100.00;96871.91;6229946;22;20012;-66
2024/02/12 01:38:11;;;;;;;9.25;4.05;;;;;;;5.57;100.00;96879.16;6207330;22;20065;-63
2024/02/12 01:40:39;;;;;;;6.75;3.47;;;;;;;5.55;100.00;96879.28;6207449;22;20395;-64
2024/02/12 01:43:04;;;;;;;7.25;3.70;;;;;;;5.61;100.00;96882.22;6229506;22;20087;-63
2024/02/12 01:45:30;;;;;;;8.07;3.70;;;;;;;5.43;100.00;96874.56;6206736;22;20150;-63
2024/02/12 01:47:59;;;;;;;5.60;3.00;;;;;;;5.09;100.00;96821.25;6232540;22;20035;-63
2024/02/12 01:50:25;;;;;;;6.10;3.90;;;;;;;5.46;100.00;96875.06;6208129;22;20077;-63
2024/02/12 01:52:54;;;;;;;7.32;3.50;;;;;;;5.42;100.00;96873.78;6204271;22;20004;-63
2024/02/12 01:55:28;;;;;;;6.30;3.20;;;;;;;5.49;100.00;96876.50;6233120;22;20094;-66
2024/02/12 01:57:54;;;;;;;6.15;3.25;;;;;;;5.33;100.00;96869.50;6206015;22;20257;-63
2024/02/12 02:00:25;;;;;;;6.53;3.13;;;;;;;5.38;100.00;96873.28;6232287;22;20016;-65
2024/02/12 02:02:51;;;;;;;6.80;2.70;;;;;;;5.25;100.00;96857.41;6233469;22;20103;-64
2024/02/12 02:05:16;;;;;;;5.03;2.60;;;;;;;5.24;100.00;96855.81;6226990;22;20332;-63
2024/02/12 02:07:42;;;;;;;5.28;2.60;;;;;;;5.32;100.00;96863.56;6260611;22;20077;-64
2024/02/12 02:10:14;;;;;;;6.22;2.85;;;;;;;5.17;100.00;96857.38;6206154;22;20019;-64
2024/02/12 02:12:40;;;;;;;5.68;2.75;;;;;;;5.16;100.00;96864.28;6206902;22;20069;-63
2024/02/12 02:15:06;;;;;;;6.07;3.08;;;;;;;5.12;100.00;96852.66;6232155;22;20007;-64
2024/02/12 02:17:36;;;;;;;6.00;2.83;;;;;;;5.09;100.00;96854.75;6231692;22;20337;-64
2024/02/12 02:20:02;;;;;;;5.35;2.42;;;;;;;5.17;100.00;96842.72;6209408;22;20008;-65
2024/02/12 02:22:29;;;;;;;4.82;2.20;;;;;;;5.16;100.00;96853.16;6206238;22;20030;-64
2024/02/12 02:24:58;;;;;;;4.97;2.33;;;;;;;5.11;100.00;96857.97;6209408;22;20026;-66
2024/02/12 02:27:26;;;;;;;5.80;2.13;;;;;;;5.14;100.00;96860.25;6232928;22;20105;-64
2024/02/12 02:29:53;;;;;;;5.43;2.60;;;;;;;5.10;100.00;96861.53;6207548;22;20855;-63
2024/02/12 02:32:21;;;;;;;4.65;2.15;;;;;;;4.76;100.00;96810.78;6208241;22;20025;-64
2024/02/12 02:34:47;;;;;;;5.07;2.40;;;;;;;4.93;100.00;96843.41;6227691;22;20003;-63
2024/02/12 02:37:12;;;;;;;6.15;2.50;;;;;;;4.98;100.00;96863.53;6234985;22;20012;-64
2024/02/12 02:39:38;;;;;;;6.00;2.60;;;;;;;4.94;100.00;96862.22;6234093;22;20035;-64
2024/02/12 02:42:06;;;;;;;4.82;2.22;;;;;;;4.90;100.00;96863.50;6207638;22;20436;-64
2024/02/12 02:44:33;;;;;;;4.80;2.10;;;;;;;4.94;100.00;96875.91;6261715;22;20007;-63
2024/02/12 02:46:58;;;;;;;5.32;2.15;;;;;;;4.57;100.00;96827.25;6207439;22;20716;-63
2024/02/12 02:49:24;;;;;;;5.00;2.63;;;;;;;4.99;100.00;96878.84;6235749;22;20034;-63
2024/02/12 02:51:52;;;;;;;5.00;2.70;;;;;;;5.04;100.00;96870.69;6232488;22;20008;-62
2024/02/12 02:54:22;;;;;;;5.63;2.97;;;;;;;5.11;100.00;96871.69;6209757;22;20015;-63
2024/02/12 02:56:48;;;;;;;6.38;2.85;;;;;;;5.11;100.00;96871.69;6261142;22;20004;-63
2024/02/12 02:59:13;;;;;;;5.55;2.83;;;;;;;4.78;100.00;96825.13;6233138;22;20012;-64
2024/02/12 03:01:38;;;;;;;5.57;2.78;;;;;;;4.97;100.00;96872.25;6209725;22;20019;-64
2024/02/12 03:04:04;;;;;;;5.97;2.53;;;;;;;5.00;100.00;96859.03;6230625;22;20088;-62
2024/02/12 03:06:29;;;;;;;7.00;2.88;;;;;;;4.98;100.00;96871.25;6206132;22;20149;-64
2024/02/12 03:08:58;;;;;;;6.50;2.63;;;;;;;5.14;100.00;96881.66;6229783;22;20011;-65
2024/02/12 03:11:27;;;;;;;6.55;2.83;;;;;;;5.10;100.00;96887.28;6234166;22;20158;-64
2024/02/12 03:13:54;;;;;;;5.33;2.43;;;;;;;5.06;100.00;96896.28;6207467;22;20008;-63
2024/02/12 03:16:21;;;;;;;5.80;2.70;;;;;;;5.04;100.00;96893.84;6207664;22;20012;-65
2024/02/12 03:18:47;;;;;;;5.93;2.75;;;;;;;5.01;100.00;96902.69;6209538;22;20501;-63
2024/02/12 03:21:20;;;;;;;4.90;2.30;;;;;;;4.99;100.00;96903.81;6230021;22;20185;-68
2024/02/12 03:23:53;;;;;;;8.13;2.55;;;;;;;4.87;100.00;96903.22;6235355;22;20035;-65
2024/02/12 03:26:20;;;;;;;5.22;2.20;;;;;;;4.77;100.00;96856.97;6208486;22;20913;-64
2024/02/12 03:28:53;;;;;;;6.60;2.72;;;;;;;5.09;100.00;96908.84;6207842;22;20004;-62
2024/02/12 03:31:21;;;;;;;6.45;3.25;;;;;;;4.73;100.00;96858.25;6259651;22;20091;-64
2024/02/12 03:33:49;;;;;;;5.55;2.70;;;;;;;4.96;100.00;96901.53;6232299;22;20019;-64
2024/02/12 03:36:16;;;;;;;4.88;2.30;;;;;;;4.71;100.00;96844.72;6202441;22;20012;-65
2024/02/12 03:38:42;;;;;;;5.65;2.75;;;;;;;5.22;100.00;96908.44;6232159;22;20003;-63
2024/02/12 03:41:24;;;;;;;6.55;2.78;;;;;;;5.14;100.00;96904.84;6260412;22;20449;-66
2024/02/12 03:43:57;;;;;;;6.32;2.58;;;;;;;5.17;100.00;96898.59;6207938;22;20337;-64
2024/02/12 03:46:31;;;;;;;5.30;2.60;;;;;;;5.21;100.00;96912.78;6207938;22;20016;-66
2024/02/12 04:00:09;;;;;;;4.68;2.10;;;;;;;5.00;100.00;96929.41;6237159;22;20486;-67
2024/02/12 04:02:35;;;;;;;4.85;2.03;;;;;;;5.06;100.00;96932.34;6235102;22;20065;-64
2024/02/12 04:05:01;;;;;;;5.75;1.85;;;;;;;5.11;100.00;96937.84;6207106;22;20007;-65
2024/02/12 04:07:27;;;;;;;5.88;2.25;;;;;;;4.81;100.00;96896.91;6230714;22;20011;-65
2024/02/12 04:09:52;;;;;;;6.05;1.70;;;;;;;4.96;100.00;96946.09;6230599;22;20039;-64
2024/02/12 04:12:17;;;;;;;4.75;1.90;;;;;;;5.00;100.00;96947.44;6235284;22;20019;-64
2024/02/12 04:14:48;;;;;;;5.97;2.17;;;;;;;4.55;100.00;96888.38;6230620;22;20111;-66
2024/02/12 04:17:16;;;;;;;4.47;1.90;;;;;;;4.71;100.00;96905.69;6234897;22;20003;-64
2024/02/12 04:19:42;;;;;;;5.18;2.35;;;;;;;4.69;100.00;96915.31;6207475;22;20726;-65
2024/02/12 04:22:11;;;;;;;5.13;2.00;;;;;;;4.94;100.00;96954.97;6233093;22;20014;-64
2024/02/12 04:24:44;;;;;;;4.72;2.00;;;;;;;4.83;100.00;96950.84;6206798;22;20010;-65
2024/02/12 04:27:13;;;;;;;5.38;2.42;;;;;;;4.88;100.00;96969.25;6205470;22;20455;-64
2024/02/12 04:29:42;;;;;;;5.35;2.05;;;;;;;4.87;100.00;96964.22;6234207;22;20007;-64
2024/02/12 04:32:15;;;;;;;4.60;2.15;;;;;;;4.87;100.00;96957.31;6205383;22;20007;-66
2024/02/12 04:34:41;;;;;;;5.20;2.10;;;;;;;4.93;100.00;96964.47;6261441;22;20004;-65
2024/02/12 04:37:08;;;;;;;4.72;1.85;;;;;;;4.98;100.00;96966.56;6206221;22;20018;-64
2024/02/12 04:39:34;;;;;;;4.85;2.00;;;;;;;4.82;100.00;96985.31;6228247;22;20077;-65
2024/02/12 04:42:02;;;;;;;4.65;1.67;;;;;;;4.74;100.00;96995.50;6233322;22;20121;-66
2024/02/12 04:44:27;;;;;;;4.32;1.70;;;;;;;4.84;100.00;96990.28;6231965;22;20054;-64
2024/02/12 04:46:55;;;;;;;4.43;1.75;;;;;;;4.83;100.00;96992.06;6233487;22;20012;-65
2024/02/12 04:49:20;;;;;;;4.25;1.77;;;;;;;4.90;100.00;96994.84;6205035;22;20088;-64
2024/02/12 04:51:46;;;;;;;4.88;1.70;;;;;;;4.88;100.00;97000.16;6234492;22;20012;-63
2024/02/12 04:54:17;;;;;;;3.67;1.45;;;;;;;4.86;100.00;96998.69;6204107;22;20008;-65
2024/02/12 04:56:43;;;;;;;4.75;2.08;;;;;;;4.75;100.00;96997.94;6261586;22;20396;-67
2024/02/12 04:59:15;;;;;;;5.63;1.88;;;;;;;4.78;100.00;97002.81;6206917;22;20022;-64
2024/02/12 05:01:40;;;;;;;4.75;1.80;;;;;;;4.86;100.00;96998.69;6206148;22;20623;-63
2024/02/12 05:04:05;;;;;;;5.95;2.08;;;;;;;4.53;100.00;96944.34;6234845;22;20027;-64
2024/02/12 05:06:36;;;;;;;5.60;1.80;;;;;;;4.78;100.00;97005.38;6204676;22;20015;-64
2024/02/12 05:09:04;;;;;;;5.50;1.70;;;;;;;4.43;100.00;96940.06;6209147;22;20016;-67
2024/02/12 05:11:33;;;;;;;4.53;1.42;;;;;;;4.77;100.00;96988.31;6227194;22;20004;-66
2024/02/12 05:13:59;;;;;;;7.05;2.20;;;;;;;4.93;100.00;96989.41;6208246;22;20010;-64
2024/02/12 05:16:34;;;;;;;4.55;1.88;;;;;;;4.97;100.00;96996.69;6205733;22;20011;-66
2024/02/12 05:24:38;;;;;;;4.53;1.95;;;;;;;5.05;100.00;97006.25;6258573;22;20107;-66
2024/02/12 05:27:04;;;;;;;4.50;1.77;;;;;;;4.94;100.00;97011.63;6207283;22;20043;-64
2024/02/12 05:29:37;;;;;;;4.80;1.60;;;;;;;4.94;100.00;97014.19;6208182;22;20078;-64
2024/02/12 05:32:05;;;;;;;4.25;1.63;;;;;;;4.88;100.00;97010.44;6206183;22;20008;-66
2024/02/12 05:34:30;;;;;;;3.83;1.48;;;;;;;4.90;100.00;97018.03;6260679;22;20267;-66
2024/02/12 05:36:55;;;;;;;4.75;1.83;;;;;;;4.76;100.00;97012.44;6257955;22;20420;-64
2024/02/12 05:39:23;;;;;;;4.53;1.80;;;;;;;4.73;100.00;97010.16;6231940;22;20031;-64
2024/02/12 05:41:52;;;;;;;4.47;1.70;;;;;;;4.77;100.00;97031.28;6228084;22;20008;-65
2024/02/12 05:44:26;;;;;;;3.50;1.40;;;;;;;4.96;100.00;97023.38;6205389;22;20069;-66
2024/02/12 05:46:51;;;;;;;4.63;1.85;;;;;;;5.05;100.00;97024.28;6233069;22;20026;-64
2024/02/12 05:49:23;;;;;;;4.47;1.60;;;;;;;5.07;100.00;97032.66;6205343;22;20391;-65
2024/02/12 05:51:49;;;;;;;3.97;1.42;;;;;;;4.94;100.00;97033.03;6234019;22;20436;-64
2024/02/12 05:54:14;;;;;;;4.15;1.50;;;;;;;4.95;100.00;97019.22;6204865;22;20018;-64
2024/02/12 05:56:40;;;;;;;3.53;1.30;;;;;;;5.00;100.00;97029.06;6206440;22;20012;-63
2024/02/12 05:59:09;;;;;;;3.50;1.45;;;;;;;4.93;100.00;96997.94;6230987;22;20475;-64
2024/02/12 06:01:35;;;;;;;4.10;1.40;;;;;;;5.11;100.00;97034.00;6231478;22;20014;-65
2024/02/12 06:04:00;;;;;;;4.30;1.48;;;;;;;5.00;100.00;97029.06;6234098;22;20684;-64
2024/02/12 06:06:27;;;;;;;4.43;1.70;;;;;;;5.04;100.00;97035.53;6205213;22;20066;-64
2024/02/12 06:08:56;;;;;;;3.75;1.48;;;;;;;4.73;100.00;96999.06;6260828;22;20018;-66
2024/02/12 06:11:21;;;;;;;4.18;1.42;;;;;;;4.83;100.00;97035.84;6232891;22;20964;-62
2024/02/12 06:13:47;;;;;;;4.32;1.70;;;;;;;4.88;100.00;97037.97;6232010;22;20071;-64
2024/02/12 06:16:13;;;;;;;4.00;1.38;;;;;;;4.84;100.00;97052.91;6235358;22;20007;-64
2024/02/12 06:18:41;;;;;;;3.88;1.50;;;;;;;4.88;100.00;97050.84;6207535;22;20008;-64
2024/02/12 06:21:06;;;;;;;4.00;1.60;;;;;;;5.00;100.00;97054.81;6209424;22;20019;-66
2024/02/12 06:23:32;;;;;;;3.78;1.50;;;;;;;5.07;100.00;97055.84;6207311;22;20103;-65
2024/02/12 06:25:59;;;;;;;4.68;1.42;;;;;;;5.03;100.00;97056.31;6234206;22;20065;-65
2024/02/12 06:28:25;;;;;;;3.90;1.35;;;;;;;5.07;100.00;97061.00;6208049;22;20004;-65
2024/02/12 06:30:53;;;;;;;4.35;1.48;;;;;;;5.07;100.00;97055.84;6204864;22;20016;-65
2024/02/12 06:33:18;;;;;;;3.13;1.13;;;;;;;5.12;100.00;97056.22;6262715;22;20014;-65
2024/02/12 06:35:46;;;;;;;3.50;1.30;;;;;;;5.07;100.00;97055.03;6231482;22;20293;-68
2024/02/12 06:38:11;;;;;;;4.35;1.45;;;;;;;5.25;100.00;97080.81;6209992;22;20007;-64
2024/02/12 06:40:37;;;;;;;3.47;1.30;;;;;;;5.27;100.00;97068.56;6232957;22;20084;-63
2024/02/12 06:43:04;;;;;;;3.40;1.33;;;;;;;5.33;100.00;97078.28;6261612;22;20124;-64
2024/02/12 06:45:31;;;;;;;4.20;1.40;;;;;;;5.26;100.00;97047.16;6203265;22;20345;-71
2024/02/12 06:47:59;;;;;;;3.50;1.20;;;;;;;5.44;100.00;97097.84;6207149;22;20046;-64
2024/02/12 06:50:25;;;;;;;4.18;1.63;;;;;;;5.41;100.00;97096.41;6208039;22;20036;-63
2024/02/12 06:52:51;;;;;;;4.00;1.50;;;;;;;5.37;100.00;97108.78;6230452;22;20107;-64
2024/02/12 06:55:21;;;;;;;4.80;1.70;;;;;;;5.32;100.00;97113.56;6207503;22;20015;-64
2024/02/12 06:57:46;;;;;;;7.97;1.80;;;;;;;5.37;100.00;97124.25;6258910;22;20015;-64
2024/02/12 07:00:15;;;;;;;9.73;2.45;;;;;;;5.42;100.00;97139.28;6234915;22;20003;-64
2024/02/12 07:02:44;;;;;;;4.93;2.13;;;;;;;5.39;100.00;97126.69;6232125;22;20004;-65
2024/02/12 07:05:12;;;;;;;6.22;2.58;;;;;;;5.37;100.00;97138.91;6232241;22;20018;-67
2024/02/12 07:07:39;;;;;;;5.53;2.65;;;;;;;5.36;100.00;97147.59;6258521;22;20094;-64
2024/02/12 07:10:05;;;;;;;5.95;2.65;;;;;;;5.16;100.00;97111.63;6205890;22;20390;-66
2024/02/12 07:12:32;;;;;;;7.05;2.50;;;;;;;5.49;100.00;97137.69;6233794;22;20443;-66
2024/02/12 07:15:00;;;;;;;5.80;2.67;;;;;;;5.39;100.00;97134.41;6233431;22;20007;-65
2024/02/12 07:17:25;;;;;;;7.50;3.00;;;;;;;5.42;100.00;97149.59;6203464;22;20611;-63
2024/02/12 07:19:51;;;;;;;6.82;3.83;;;;;;;5.46;100.00;97150.91;6232342;22;20008;-63
2024/02/12 07:22:20;;;;;;;6.32;3.10;;;;;;;5.24;100.00;97097.22;6231243;22;20018;-63
2024/02/12 07:24:49;;;;;;;6.25;3.10;;;;;;;5.45;100.00;97138.97;6234457;22;20435;-65
2024/02/12 07:27:18;;;;;;;6.25;3.47;;;;;;;5.17;100.00;97125.34;6232689;22;20371;-64
2024/02/12 07:29:49;;;;;;;6.28;2.90;;;;;;;5.21;100.00;97139.56;6209763;22;20552;-62
2024/02/12 07:32:15;;;;;;;4.95;2.25;;;;;;;5.33;100.00;97135.81;6204378;22;20033;-67
2024/02/12 07:34:41;;;;;;;5.35;2.67;;;;;;;5.37;100.00;97137.13;6210201;22;20547;-66
2024/02/12 07:37:09;;;;;;;5.20;2.83;;;;;;;5.15;100.00;97086.03;6231243;22;20737;-64
2024/02/12 07:39:39;;;;;;;5.43;2.70;;;;;;;5.40;100.00;97154.06;6259323;22;20888;-64
2024/02/12 07:42:07;;;;;;;5.15;2.78;;;;;;;5.49;100.00;97160.91;6233528;22;20082;-63
2024/02/12 07:44:33;;;;;;;7.38;3.33;;;;;;;5.54;100.00;97169.00;6232313;22;20074;-64
2024/02/12 07:47:02;;;;;;;8.77;3.45;;;;;;;5.56;100.00;97176.59;6203935;22;20016;-63
2024/02/12 07:49:28;;;;;;;7.68;3.22;;;;;;;5.52;100.00;97175.28;6232723;22;20095;-64
2024/02/12 07:51:56;;;;;;;7.03;3.72;;;;;;;5.59;100.00;97189.22;6233597;22;20095;-64
2024/02/12 07:54:21;;;;;;;6.00;3.08;;;;;;;5.53;100.00;97182.88;6207727;22;20019;-64
2024/02/12 07:56:49;;;;;;;7.57;2.97;;;;;;;5.55;100.00;97180.97;6260659;22;20039;-64
2024/02/12 07:59:14;;;;;;;7.40;3.17;;;;;;;5.65;100.00;97188.59;6206594;22;20498;-65
2024/02/12 08:01:40;;;;;;;6.07;2.40;;;;;;;5.56;100.00;97189.50;6207421;22;20019;-65
2024/02/12 08:04:05;;;;;;;6.60;3.30;;;;;;;5.61;100.00;97194.22;6233574;22;20098;-63
2024/02/12 08:06:31;;;;;;;7.05;2.83;;;;;;;5.33;100.00;97143.53;6230387;22;20018;-66
2024/02/12 08:08:58;;;;;;;5.80;2.95;;;;;;;5.56;100.00;97187.72;6209171;22;20090;-65
2024/02/12 08:11:24;;;;;;;9.40;4.10;;;;;;;5.41;100.00;97191.78;6205549;22;20012;-65
2024/02/12 08:13:50;;;;;;;11.95;3.78;;;;;;;5.50;100.00;97200.41;6208845;22;20065;-64
2024/02/12 08:16:16;;;;;;;7.45;3.17;;;;;;;5.58;100.00;97197.88;6204400;22;20122;-64
2024/02/12 08:18:41;;;;;;;6.47;2.90;;;;;;;5.61;100.00;97200.19;6203706;22;20018;-64
2024/02/12 08:21:09;;;;;;;6.82;3.00;;;;;;;5.59;100.00;97202.91;6230410;22;20738;-64
2024/02/12 08:23:37;;;;;;;5.55;2.42;;;;;;;5.56;100.00;97189.50;6207381;22;20496;-66
2024/02/12 08:26:05;;;;;;;5.00;2.13;;;;;;;5.61;100.00;97202.75;6233976;22;20004;-65
2024/02/12 08:28:30;;;;;;;6.78;2.55;;;;;;;5.69;100.00;97210.56;6232529;22;20026;-65
2024/02/12 08:30:57;;;;;;;8.25;2.38;;;;;;;5.59;100.00;97202.91;6233785;22;20758;-65
2024/02/12 08:33:25;;;;;;;5.70;2.50;;;;;;;5.37;100.00;97151.78;6202150;22;20004;-65
2024/02/12 08:35:51;;;;;;;6.07;2.10;;;;;;;5.70;100.00;97206.22;6235024;22;20061;-64
2024/02/12 08:38:18;;;;;;;4.70;2.10;;;;;;;5.71;100.00;97202.66;6203849;22;20012;-65
2024/02/12 08:40:50;;;;;;;4.70;2.25;;;;;;;5.78;100.00;97214.81;6208522;22;20205;-66
2024/02/12 08:43:18;;;;;;;4.68;2.00;;;;;;;5.88;100.00;97219.13;6206049;22;20008;-65
2024/02/12 08:45:47;;;;;;;4.90;2.20;;;;;;;5.61;100.00;97171.81;6207188;22;20367;-66
2024/02/12 08:48:15;;;;;;;6.85;2.63;;;;;;;5.58;100.00;97169.53;6202963;22;20108;-68
2024/02/12 08:50:44;;;;;;;8.73;2.60;;;;;;;5.93;100.00;97222.88;6204775;22;20012;-67
2024/02/12 08:53:09;;;;;;;6.22;2.50;;;;;;;5.70;100.00;97175.28;6232579;22;20007;-65
2024/02/12 08:55:37;;;;;;;4.95;2.42;;;;;;;6.07;100.00;97225.88;6230204;22;20735;-63
2024/02/12 08:58:05;;;;;;;6.35;2.53;;;;;;;5.85;100.00;97183.28;6209402;22;20016;-64
2024/02/12 09:00:33;;;;;;;5.85;2.60;;;;;;;6.11;100.00;97222.84;6229748;22;20004;-67
2024/02/12 09:03:04;;;;;;;5.85;2.40;;;;;;;6.09;100.00;97222.19;6234633;22;20377;-65
2024/02/12 09:05:29;;;;;;;5.70;2.60;;;;;;;6.17;100.00;97229.19;6233339;22;20004;-64
2024/02/12 09:07:55;;;;;;;5.10;2.35;;;;;;;5.83;100.00;97178.28;6232515;22;20439;-66
2024/02/12 09:10:20;;;;;;;7.32;2.70;;;;;;;5.99;100.00;97229.22;6230605;22;20507;-65
2024/02/12 09:12:49;;;;;;;5.13;2.28;;;;;;;5.99;100.00;97230.97;6206823;22;20174;-67
2024/02/12 09:15:16;;;;;;;7.40;3.10;;;;;;;5.82;100.00;97243.72;6213030;22;20060;-63
2024/02/12 09:17:47;;;;;;;7.72;3.40;;;;;;;5.86;100.00;97242.47;6204965;22;20012;-64
2024/02/12 09:20:14;;;;;;;9.88;4.82;;;;;;;5.92;100.00;97243.66;6202869;22;20007;-63
2024/02/12 09:22:40;;;;;;;7.82;3.53;;;;;;;5.94;100.00;97242.53;6206312;22;20015;-67
2024/02/12 09:25:12;;;;;;;6.97;3.03;;;;;;;5.96;100.00;97245.78;6234491;22;20069;-64
2024/02/12 09:27:38;;;;;;;7.57;3.17;;;;;;;6.03;100.00;97245.22;6232754;22;20065;-65
2024/02/12 09:30:09;;;;;;;5.13;2.50;;;;;;;6.00;100.00;97243.72;6232921;22;20081;-64
2024/02/12 09:32:37;;;;;;;7.30;2.55;;;;;;;5.82;100.00;97209.38;6234386;22;20019;-65
2024/02/12 09:35:03;;;;;;;5.78;2.40;;;;;;;6.00;100.00;97235.19;6232137;22;20016;-66
2024/02/12 09:37:34;;;;;;;5.40;2.40;;;;;;;6.07;100.00;97244.75;6235904;22;20004;-65
2024/02/12 09:40:07;;;;;;;6.35;2.65;;;;;;;6.08;100.00;97238.66;6205888;22;20025;-64
2024/02/12 09:42:32;;;;;;;4.97;2.08;;;;;;;6.05;100.00;97233.78;6234462;22;20082;-66
2024/02/12 09:45:02;;;;;;;6.25;2.58;;;;;;;6.18;100.00;97245.50;6208617;22;20122;-65
2024/02/12 09:47:31;;;;;;;4.70;2.15;;;;;;;6.21;100.00;97240.84;6232933;22;20012;-66
2024/02/12 09:50:04;;;;;;;4.63;1.97;;;;;;;5.95;100.00;97197.75;6233353;22;20014;-65
2024/02/12 09:52:30;;;;;;;5.97;2.25;;;;;;;6.34;100.00;97237.84;6208935;22;20019;-63
2024/02/12 09:54:55;;;;;;;5.07;2.25;;;;;;;6.39;100.00;97240.81;6233366;22;20336;-67
2024/02/12 09:57:21;;;;;;;4.90;1.60;;;;;;;6.43;100.00;97247.28;6207170;22;20018;-65
2024/02/12 09:59:47;;;;;;;3.80;1.48;;;;;;;6.40;100.00;97250.16;6234131;22;20480;-66
2024/02/12 10:02:16;;;;;;;4.07;1.38;;;;;;;6.43;100.00;97256.81;6262557;22;20011;-62
2024/02/12 10:04:41;;;;;;;4.78;1.67;;;;;;;6.47;100.00;97253.75;6233674;22;20369;-65
2024/02/12 10:07:09;;;;;;;5.50;1.65;;;;;;;6.59;100.00;97256.91;6235709;22;20031;-64
2024/02/12 10:09:35;;;;;;;5.40;2.03;;;;;;;6.66;100.00;97257.91;6207813;22;20553;-65
2024/02/12 10:12:12;;;;;;;4.63;1.63;;;;;;;6.75;100.00;97269.09;6235866;22;20031;-66
2024/02/12 10:14:38;;;;;;;6.03;2.25;;;;;;;6.68;100.00;97227.56;6233119;22;20007;-64
2024/02/12 10:17:05;;;;;;;5.13;2.47;;;;;;;6.85;100.00;97254.28;6235449;22;20500;-66
2024/02/12 10:19:37;;;;;;;5.47;1.73;;;;;;;6.99;100.00;97260.66;6231443;22;20304;-65
2024/02/12 10:22:03;;;;;;;3.72;1.48;;;;;;;7.12;100.00;97268.78;6204261;22;20011;-64
2024/02/12 10:24:28;;;;;;;7.00;1.88;;;;;;;7.29;100.00;97264.47;6207891;22;20016;-65
2024/02/12 10:26:54;;;;;;;4.82;1.98;;;;;;;7.34;100.00;97253.69;6233484;22;20435;-67
2024/02/12 10:29:19;;;;;;;5.85;2.15;;;;;;;7.63;100.00;97257.59;6210785;22;20772;-66
2024/02/12 10:31:48;;;;;;;5.93;2.60;;;;;;;7.87;100.00;97251.66;6212155;22;20015;-67
2024/02/12 10:34:16;;;;;;;5.93;2.40;;;;;;;8.05;100.00;97254.09;6213074;22;20015;-64
2024/02/12 10:36:45;;;;;;;5.50;2.70;;;;;;;8.26;100.00;97249.22;6206733;22;20011;-65
2024/02/12 10:39:13;;;;;;;5.55;2.70;;;;;;;8.46;100.00;97252.31;6233115;22;20047;-65
2024/02/12 10:41:45;;;;;;;5.80;2.78;;;;;;;8.60;100.00;97248.25;6233694;22;20007;-65
2024/02/12 10:44:16;;;;;;;5.65;2.95;;;;;;;8.64;100.00;97248.72;6234224;22;20765;-64
2024/02/12 10:46:41;;;;;;;5.10;2.88;;;;;;;8.70;100.00;97237.69;6235331;22;20016;-65
2024/02/12 10:49:09;;;;;;;5.88;2.95;;;;;;;8.50;100.00;97193.22;6207574;22;20046;-63
2024/02/12 10:51:37;;;;;;;5.40;2.90;;;;;;;8.83;100.00;97237.16;6207429;22;20007;-66
2024/02/12 10:54:03;;;;;;;5.57;3.45;;;;;;;8.55;100.00;97188.34;6207773;22;20068;-65
2024/02/12 10:56:29;;;;;;;6.40;3.28;;;;;;;8.92;100.00;97249.13;6210301;22;20094;-64
2024/02/12 10:58:54;;;;;;;5.93;3.47;;;;;;;8.98;100.00;97240.69;6229879;22;20015;-66
2024/02/12 11:01:23;;;;;;;6.90;3.25;;;;;;;9.09;100.00;97238.69;6234868;22;20014;-65
2024/02/12 11:03:51;;;;;;;5.82;3.47;;;;;;;9.16;100.00;97243.03;6206796;22;20489;-64
2024/02/12 11:06:19;;;;;;;5.93;3.45;;;;;;;9.27;100.00;97236.66;6235033;22;20004;-65
2024/02/12 11:08:49;;;;;;;6.43;3.33;;;;;;;9.02;100.00;97197.09;6235541;22;20088;-62
2024/02/12 11:11:22;;;;;;;;;;;;;;;9.42;100.00;97245.34;6207462;22;20016;-65
2024/02/12 11:13:52;;;;;;;6.32;3.22;;;;;;;9.42;100.00;97242.75;6262685;22;19997;-63
2024/02/12 11:16:25;;;;;;;5.72;3.28;;;;;;;9.56;100.00;97243.78;6226592;22;20837;-67
2024/02/12 11:18:58;;;;;;;9.05;3.88;;;;;;;9.54;100.00;97239.75;6208498;22;20057;-64
2024/02/12 11:21:38;;;;;;;6.20;3.40;;;;;;;9.60;100.00;97246.84;6261381;22;20011;-65
2024/02/12 11:24:13;;;;;;;6.90;3.95;;;;;;;9.69;100.00;97245.00;6205900;22;20020;-65
2024/02/12 11:26:43;;;;;;;8.23;4.20;;;;;;;9.67;100.00;97246.97;6258272;22;20008;-64
2024/02/12 11:29:10;;;;;;;6.35;3.55;;;;;;;9.62;100.00;97237.13;6229800;22;20010;-65
2024/02/12 11:31:40;;;;;;;6.68;3.80;;;;;;;9.73;100.00;97244.50;6193578;22;20019;-67
2024/02/12 11:34:18;;;;;;;7.43;3.78;;;;;;;9.81;100.00;97241.03;6258112;22;20090;-65
2024/02/12 11:36:47;;;;;;;6.38;3.55;;;;;;;9.90;100.00;97237.41;6209072;22;20217;-65
2024/02/12 11:39:17;;;;;;;6.78;3.70;;;;;;;9.93;100.00;97231.88;6236433;22;20073;-64
2024/02/12 11:41:48;;;;;;;7.03;4.10;;;;;;;9.99;100.00;97231.16;6235545;22;20008;-67
2024/02/12 11:44:16;;;;;;;7.07;4.03;;;;;;;10.12;100.00;97238.38;6235289;22;20007;-65
2024/02/12 11:46:42;;;;;;;8.27;4.53;;;;;;;10.04;100.00;97222.03;6209078;22;20012;-66
2024/02/12 11:49:08;;;;;;;6.55;3.40;;;;;;;10.17;100.00;97236.06;6208247;22;20015;-65
2024/02/12 11:51:40;;;;;;;7.53;4.05;;;;;;;10.14;99.28;97225.22;6234671;22;20058;-65
2024/02/12 11:54:10;;;;;;;6.22;3.70;;;;;;;10.17;100.00;97230.84;6226966;22;20039;-64